Capel Curig, United Kingdom
Current Conditions -  °F | °C
As of 7:50 AM on Wednesday 26 Nov 2014 (Local Time) from EGOV Reporting Station
Broken Clouds Broken Clouds  
Wind Chill: 41°   Ceiling: 4000
Heat Index: 45°   Visibility: 6mi
Dew Point: 43°   Wind: 6mph
Humidity: 93%   Direction: 50°NE
Pressure: 29.94"   Gusts: NA
Location:  53.1°N, 3.93°W
Report Text: EGOV 260750Z 05005KT 9999 BKN040 07/06 Q1014 BLU NOSIG
Loading
Personal Weather Stations






























Interactive Weather Map New forecast layout! Learn more

10-Day Weather Forecast

Advertisements
Track Severe Weather on mobile